createdAt,value
2022-11-28T00:02:42.861Z,1.36
2022-11-28T00:05:46.811Z,1.31
2022-11-28T00:08:42.791Z,1.04
2022-11-28T00:11:42.768Z,1.29
2022-11-28T00:14:42.865Z,1.08
2022-11-28T00:17:43.023Z,1.41
2022-11-28T00:20:42.853Z,1.08
2022-11-28T00:23:42.745Z,1.44
2022-11-28T00:26:42.828Z,1.74
2022-11-28T00:29:42.912Z,1.93
2022-11-28T00:32:42.825Z,1.95
2022-11-28T00:35:42.767Z,2.07
2022-11-28T00:38:42.796Z,2.29
2022-11-28T00:41:42.771Z,1.99
2022-11-28T00:44:43.007Z,1.23
2022-11-28T00:47:42.768Z,1.41
2022-11-28T00:50:42.832Z,1.36
2022-11-28T00:53:42.781Z,1.38
2022-11-28T00:56:42.784Z,1.69
2022-11-28T00:59:42.828Z,0.94
2022-11-28T01:02:42.815Z,1.14
2022-11-28T01:05:42.835Z,1.88
2022-11-28T01:08:43.334Z,1.95
2022-11-28T01:11:42.825Z,1.52
2022-11-28T01:14:42.896Z,2.26
2022-11-28T01:17:42.849Z,1.58
2022-11-28T01:20:42.787Z,1.47
2022-11-28T01:23:42.751Z,1.16
2022-11-28T01:26:42.796Z,1.37
2022-11-28T01:29:42.804Z,1.78
2022-11-28T01:32:42.852Z,1.88
2022-11-28T01:35:42.813Z,1.37
2022-11-28T01:38:42.849Z,1.46
2022-11-28T01:41:42.771Z,1.43
2022-11-28T01:44:42.888Z,1.66
2022-11-28T01:47:42.857Z,1.96
2022-11-28T01:50:42.833Z,0.62
2022-11-28T01:53:42.871Z,0.84
2022-11-28T01:56:42.848Z,1.09
2022-11-28T01:59:42.820Z,0.82
2022-11-28T02:02:42.876Z,0.81
2022-11-28T02:05:42.780Z,1.32
2022-11-28T02:08:42.887Z,0.78
2022-11-28T02:11:42.861Z,0.39
2022-11-28T02:14:42.987Z,0.37
2022-11-28T02:17:42.859Z,0.26
2022-11-28T02:20:42.866Z,0.87
2022-11-28T02:23:42.900Z,0.52
2022-11-28T02:26:42.890Z,1.08
2022-11-28T02:29:42.828Z,1.78
2022-11-28T02:32:42.920Z,1.64
2022-11-28T02:35:42.847Z,1.16
2022-11-28T02:38:42.885Z,0.75
2022-11-28T02:41:42.863Z,0.67
2022-11-28T02:44:43.052Z,1.14
2022-11-28T02:47:42.866Z,0.94
2022-11-28T02:50:42.929Z,0.52
2022-11-28T02:53:42.915Z,0.32
2022-11-28T02:56:42.929Z,0.57
2022-11-28T02:59:42.921Z,0.79
2022-11-28T03:02:42.924Z,0.51
2022-11-28T03:05:42.844Z,0.77
2022-11-28T03:08:42.879Z,0.39
2022-11-28T03:11:42.937Z,0.66
2022-11-28T03:14:43.034Z,1.05
2022-11-28T03:17:42.862Z,1.15
2022-11-28T03:20:42.936Z,0.84
2022-11-28T03:23:42.876Z,0.42
2022-11-28T03:26:42.951Z,0.74
2022-11-28T03:29:42.965Z,0.71
2022-11-28T03:32:42.937Z,0.72
2022-11-28T03:35:42.949Z,0.99
2022-11-28T03:38:42.923Z,1.47
2022-11-28T03:41:42.943Z,1.23
2022-11-28T03:44:43.149Z,0.95
2022-11-28T03:47:42.867Z,0.74
2022-11-28T03:50:42.890Z,0.82
2022-11-28T03:53:42.964Z,1.53
2022-11-28T03:56:42.980Z,1.41
2022-11-28T03:59:42.953Z,1.58
2022-11-28T04:02:42.933Z,1.19
2022-11-28T04:05:42.976Z,1.21
2022-11-28T04:08:42.877Z,1.85
2022-11-28T04:11:42.980Z,1.57
2022-11-28T04:14:43.057Z,1.45
2022-11-28T04:17:42.932Z,1.66
2022-11-28T04:20:42.924Z,1.16
2022-11-28T04:23:43.004Z,1.11
2022-11-28T04:26:42.925Z,1.6
2022-11-28T04:29:42.944Z,1.39
2022-11-28T04:32:42.920Z,1.74
2022-11-28T04:35:42.951Z,1.31
2022-11-28T04:38:42.971Z,1.02
2022-11-28T04:41:42.995Z,1.06
2022-11-28T04:44:43.129Z,1.4
2022-11-28T04:47:42.988Z,1.3
2022-11-28T04:50:43.000Z,1.07
2022-11-28T04:53:43.003Z,1.72
2022-11-28T04:56:42.984Z,1.32
2022-11-28T04:59:42.968Z,1.35
2022-11-28T05:02:42.972Z,1.1
2022-11-28T05:05:42.963Z,1.77
2022-11-28T05:08:42.956Z,1.62
2022-11-28T05:11:43.006Z,1.3
2022-11-28T05:14:43.144Z,1.14
2022-11-28T05:17:43.028Z,1.3
2022-11-28T05:20:42.976Z,1.2
2022-11-28T05:23:42.955Z,1.02
2022-11-28T05:26:42.962Z,0.56
2022-11-28T05:29:44.870Z,0.9
2022-11-28T05:32:42.989Z,0.56
2022-11-28T05:35:43.056Z,0.36
2022-11-28T05:38:43.022Z,1
2022-11-28T05:41:43.043Z,1.03
2022-11-28T05:44:43.032Z,1.09
2022-11-28T05:47:42.991Z,0.68
2022-11-28T05:50:43.003Z,0.51
2022-11-28T05:53:42.965Z,1.15
2022-11-28T05:56:43.019Z,1.08
2022-11-28T05:59:43.116Z,1.62
2022-11-28T06:02:43.010Z,1.57
2022-11-28T06:05:43.805Z,1.5
2022-11-28T06:08:43.092Z,1.34
2022-11-28T06:11:43.054Z,1.02
2022-11-28T06:14:43.014Z,1.22
2022-11-28T06:17:43.011Z,1.25
2022-11-28T06:20:43.003Z,1.43
2022-11-28T06:23:43.026Z,1.69
2022-11-28T06:26:43.060Z,1.74
2022-11-28T06:29:43.209Z,1.72
2022-11-28T06:32:43.022Z,1.79
2022-11-28T06:35:43.037Z,1.46
2022-11-28T06:38:43.022Z,1.49
2022-11-28T06:41:43.185Z,1.66
2022-11-28T06:44:43.092Z,1.36
2022-11-28T06:47:43.047Z,1.37
2022-11-28T06:50:43.111Z,1.52
2022-11-28T06:53:43.110Z,1.27
2022-11-28T06:56:43.130Z,1.4
2022-11-28T06:59:43.256Z,1.56
2022-11-28T07:02:43.097Z,1.23
2022-11-28T07:05:43.027Z,1.25
2022-11-28T07:08:43.068Z,1.51
2022-11-28T07:11:43.031Z,1.39
2022-11-28T07:14:43.135Z,1.48
2022-11-28T07:17:43.078Z,1.23
2022-11-28T07:20:43.086Z,1.3
2022-11-28T07:23:43.118Z,1.55
2022-11-28T07:26:43.042Z,1.48
2022-11-28T07:29:43.258Z,1.32
2022-11-28T07:32:43.148Z,1.3
2022-11-28T07:35:43.144Z,1.22
2022-11-28T07:38:43.115Z,1.16
2022-11-28T07:41:43.164Z,1.07
2022-11-28T07:44:43.153Z,1.24
2022-11-28T07:47:43.154Z,1.34
2022-11-28T07:50:43.106Z,1.25
2022-11-28T07:53:43.164Z,1.13
2022-11-28T07:59:43.317Z,1.05
2022-11-28T08:02:43.143Z,1
2022-11-28T08:05:43.174Z,0.99
2022-11-28T08:08:43.135Z,0.85
2022-11-28T08:11:43.116Z,0.48
2022-11-28T08:14:43.179Z,0.21
2022-11-28T08:17:43.134Z,0.13
2022-11-28T08:20:43.178Z,0.2
2022-11-28T08:23:43.131Z,0.02
2022-11-28T08:26:43.123Z,0
2022-11-28T08:29:43.257Z,0
2022-11-28T08:32:43.118Z,0.01
2022-11-28T08:35:43.123Z,0
2022-11-28T08:38:44.855Z,0
2022-11-28T08:41:43.149Z,0
2022-11-28T08:44:43.176Z,0.29
2022-11-28T08:47:43.226Z,0.29
2022-11-28T08:50:46.728Z,0.35
2022-11-28T08:53:46.056Z,0.34
2022-11-28T08:56:43.136Z,0.12
2022-11-28T08:59:43.321Z,0.14
2022-11-28T09:02:43.192Z,0.31
2022-11-28T09:05:43.143Z,0.28
2022-11-28T09:08:43.172Z,0.1
2022-11-28T09:11:43.138Z,0.01
2022-11-28T09:14:43.270Z,0
2022-11-28T09:17:43.235Z,0
2022-11-28T09:20:43.188Z,0
2022-11-28T09:23:43.179Z,0.11
2022-11-28T09:26:43.175Z,0.05
2022-11-28T09:29:43.312Z,0.16
2022-11-28T09:32:43.232Z,0.15
2022-11-28T09:35:43.204Z,0
2022-11-28T09:38:43.188Z,0.18
2022-11-28T09:41:43.179Z,0.04
2022-11-28T09:44:43.173Z,0.13
2022-11-28T09:47:43.242Z,0
2022-11-28T09:50:43.196Z,0
2022-11-28T09:53:43.247Z,0.08
2022-11-28T09:56:43.272Z,0.13
2022-11-28T09:59:43.272Z,0.42
2022-11-28T10:02:43.199Z,0.43
2022-11-28T10:05:43.233Z,0.06
2022-11-28T10:08:43.231Z,0.45
2022-11-28T10:11:43.339Z,0.29
2022-11-28T10:14:43.224Z,0.15
2022-11-28T10:17:43.246Z,0.05
2022-11-28T10:20:43.198Z,0.19
2022-11-28T10:23:43.289Z,0.21
2022-11-28T10:26:43.247Z,0.53
2022-11-28T10:29:43.406Z,0.37
2022-11-28T10:32:43.339Z,0.27
2022-11-28T10:35:43.318Z,0.24
2022-11-28T10:38:43.269Z,0.08
2022-11-28T10:41:43.247Z,0.13
2022-11-28T10:44:43.223Z,0.13
2022-11-28T10:47:43.519Z,0.17
2022-11-28T10:50:43.296Z,0
2022-11-28T10:53:43.251Z,0.01
2022-11-28T10:56:43.299Z,0.01
2022-11-28T10:59:43.424Z,0.15
2022-11-28T11:02:43.331Z,0.03
2022-11-28T11:05:43.319Z,0.03
2022-11-28T11:08:43.371Z,0.02
2022-11-28T11:11:43.299Z,0
2022-11-28T11:14:43.356Z,0.01
2022-11-28T11:17:43.356Z,0.17
2022-11-28T11:20:43.324Z,0.01
2022-11-28T11:23:43.322Z,0.21
2022-11-28T11:26:43.255Z,0.29
2022-11-28T11:29:44.823Z,0.16
2022-11-28T11:32:45.338Z,0.03
2022-11-28T11:35:43.285Z,0
2022-11-28T11:38:43.343Z,0
2022-11-28T11:41:43.360Z,0.12
2022-11-28T11:44:43.256Z,0.09
2022-11-28T11:47:43.338Z,0.07
2022-11-28T11:50:43.369Z,0.04
2022-11-28T11:53:43.376Z,0.14
2022-11-28T11:56:43.308Z,0.08
2022-11-28T11:59:43.599Z,0
2022-11-28T12:02:43.343Z,0.1
2022-11-28T12:06:06.442Z,0.28
2022-11-28T12:08:43.321Z,0.13
2022-11-28T12:11:46.858Z,0.27
2022-11-28T12:14:43.523Z,0.03
2022-11-28T12:17:53.507Z,0.08
2022-11-28T12:20:43.392Z,0.22
2022-11-28T12:23:43.332Z,0.13
2022-11-28T12:26:43.352Z,0.18
2022-11-28T12:29:43.583Z,0.47
2022-11-28T12:32:43.344Z,0.25
2022-11-28T12:35:43.401Z,0.1
2022-11-28T12:38:43.408Z,0.31
2022-11-28T12:41:43.394Z,0.22
2022-11-28T12:44:43.412Z,0.29
2022-11-28T12:47:43.367Z,0.3
2022-11-28T12:50:43.331Z,0.24
2022-11-28T12:53:43.360Z,0.14
2022-11-28T12:56:43.340Z,0.27
2022-11-28T12:59:43.586Z,0.17
2022-11-28T13:02:43.444Z,0.13
2022-11-28T13:05:43.363Z,0.08
2022-11-28T13:08:48.120Z,0.15
2022-11-28T13:11:43.423Z,0.06
2022-11-28T13:14:43.669Z,0.09
2022-11-28T13:17:43.469Z,0.11
2022-11-28T13:20:43.413Z,0.04
2022-11-28T13:23:43.456Z,0.04
2022-11-28T13:26:43.401Z,0.1
2022-11-28T13:29:43.463Z,0.03
2022-11-28T13:32:43.380Z,0.01
2022-11-28T13:35:43.445Z,0.08
2022-11-28T13:38:54.408Z,0.01
2022-11-28T13:42:09.988Z,0
2022-11-28T13:44:43.756Z,0
2022-11-28T13:47:43.405Z,0.15
2022-11-28T13:50:43.483Z,0.07
2022-11-28T13:53:43.433Z,0.21
2022-11-28T13:56:43.448Z,0.01
2022-11-28T13:59:43.452Z,0.17
2022-11-28T14:02:43.441Z,0.07
2022-11-28T14:05:43.447Z,0.13
2022-11-28T14:08:43.493Z,0.14
2022-11-28T14:11:43.463Z,0.23
2022-11-28T14:14:43.735Z,0.33
2022-11-28T14:17:43.540Z,0.31
2022-11-28T14:20:43.531Z,0.29
2022-11-28T14:23:43.474Z,0.56
2022-11-28T14:26:43.459Z,0.33
2022-11-28T14:29:43.496Z,0.32
2022-11-28T14:32:43.471Z,0.36
2022-11-28T14:35:43.440Z,0.32
2022-11-28T14:38:43.415Z,0.49
2022-11-28T14:41:43.513Z,0.57
2022-11-28T14:44:43.503Z,0.56
2022-11-28T14:47:43.522Z,0.53
2022-11-28T14:50:43.469Z,0.55
2022-11-28T14:53:43.475Z,0.39
2022-11-28T14:56:43.498Z,0.5
2022-11-28T14:59:43.428Z,0.47
2022-11-28T15:02:43.558Z,0.3
2022-11-28T15:05:43.509Z,0.46
2022-11-28T15:08:43.543Z,0.64
2022-11-28T15:11:43.556Z,0.71
2022-11-28T15:14:43.811Z,0.69
2022-11-28T15:17:43.525Z,0.76
2022-11-28T15:20:43.511Z,0.75
2022-11-28T15:23:43.545Z,0.7
2022-11-28T15:26:43.612Z,0.96
2022-11-28T15:29:43.558Z,0.95
2022-11-28T15:32:43.574Z,0.7
2022-11-28T15:35:43.495Z,0.65
2022-11-28T15:38:43.511Z,0.75
2022-11-28T15:41:43.569Z,0.73
2022-11-28T15:44:43.658Z,0.3
2022-11-28T15:47:44.939Z,0.25
2022-11-28T15:50:43.488Z,0.41
2022-11-28T15:53:43.523Z,0.39
2022-11-28T15:56:43.578Z,0.85
2022-11-28T15:59:43.528Z,1.01
2022-11-28T16:02:46.000Z,0.82
2022-11-28T16:05:43.509Z,0.49
2022-11-28T16:08:43.584Z,0.76
2022-11-28T16:11:43.495Z,0.67
2022-11-28T16:14:43.752Z,0.66
2022-11-28T16:17:43.519Z,0.74
2022-11-28T16:20:43.572Z,0.73
2022-11-28T16:23:43.527Z,0.81
2022-11-28T16:26:43.592Z,0.88
2022-11-28T16:29:43.646Z,0.35
2022-11-28T16:32:43.587Z,0.66
2022-11-28T16:35:43.615Z,0.74
2022-11-28T16:38:43.701Z,0.39
2022-11-28T16:41:43.637Z,0.21
2022-11-28T16:44:43.603Z,0.57
2022-11-28T16:47:43.588Z,0.74
2022-11-28T16:50:43.670Z,0.77
